• Join FlightAware (Why Join?)
  • Login
  • US Flag 
11:54AM EST


 

Airport Tracker/Info


-or-


 

Live Flight TrackerFlight Track Log ✈ SKW6345 ✈ 03-May-2013 ✈ KCOD - KDEN

Flight Track Log - Related Links

Times and Time Zones

All times are in EDT time to prevent confusion due to time zone crossing. See the SKW6345 flight status page for this flight to view local times or setup timezone preferences in your user account.

Time Position Orientation Groundspeed Altitude Reporting Facility
EDT Latitude Longitude Course Direction KTS MPH feet Rate Location/Type
09:28AM 44.5417 -108.9886 158° South 206 237 6,200  Level Salt Lake Center
09:29AM 44.5541 -108.9969 28° Northeast  Level FlightAware Approximate
09:29AM 44.5931 -108.9692 15° North 197 227 8,100  Level Salt Lake Center
09:30AM 44.5698 -108.9335 159° South  Level FlightAware Approximate
09:30AM 44.6303 -108.9119 48° Northeast 242 278 10,100  Level Salt Lake Center
09:31AM 44.4579 -108.8724 159° South  Level FlightAware Approximate
09:31AM 44.5514 -108.8789 163° South 281 323 12,200  Level Salt Lake Center
09:32AM 44.3482 -108.8043 154° Southeast  Level FlightAware Approximate
09:32AM 44.4664 -108.8753 178° South 303 349 14,000  Level Salt Lake Center
09:33AM 44.2392 -108.7343 158° South  Level FlightAware Approximate
09:33AM 44.3794 -108.8272 158° South 343 395 16,200  Level Salt Lake Center
09:34AM 44.2764 -108.7667 157° South 356 410 17,700 1,020 Climbing Salt Lake Center
09:35AM 44.1808 -108.7122 158° South 377 434 18,300 900 Climbing Salt Lake Center
09:36AM 44.0642 -108.6461 158° South 398 458 19,600 1,260 Climbing Salt Lake Center
09:37AM 43.9619 -108.5864 157° South 407 468 20,900 1,200 Climbing Salt Lake Center
09:38AM 43.8581 -108.5286 158° South 414 476 22,100 1,140 Climbing Salt Lake Center
09:39AM 43.7378 -108.4589 157° South 417 480 23,300 960 Climbing Salt Lake Center
09:40AM 43.6317 -108.3992 158° South 423 487 24,100 720 Climbing Salt Lake Center
09:41AM 43.5233 -108.3383 158° South 430 495 24,800 780 Climbing Salt Lake Center
09:42AM 43.4033 -108.2406 149° Southeast 444 511 25,700 780 Climbing Salt Lake Center
09:43AM 43.3075 -108.1378 142° Southeast 454 522 26,400 720 Climbing Salt Lake Center
09:44AM 43.1942 -108.0139 141° Southeast 462 532 27,200 660 Climbing Salt Lake Center
09:45AM 43.0961 -107.9111 143° Southeast 464 534 27,800 660 Climbing Salt Lake Center
09:46AM 42.9978 -107.8081 143° Southeast 465 535 28,600 780 Climbing Salt Lake Center
09:47AM 42.8831 -107.6889 143° Southeast 461 531 29,500 780 Climbing Salt Lake Center
09:48AM 42.7850 -107.5839 142° Southeast 466 536 30,300 720 Climbing Salt Lake Center
09:49AM 42.6872 -107.4850 143° Southeast 460 529 31,000 300 Climbing Salt Lake Center
09:50AM 42.5717 -107.3664 143° Southeast 465 535 31,000  Level Salt Lake Center
09:51AM 42.5206 -107.3133 143° Southeast 473 544 31,000  Level Denver Center
09:52AM 42.4122 -107.2206 148° Southeast 479 551 31,000  Level Denver Center
09:53AM 42.2758 -107.1317 154° Southeast 487 560 31,000  Level Denver Center
09:54AM 42.1567 -107.0558 155° Southeast 491 565 31,000  Level Denver Center
09:55AM 42.0150 -106.9669 155° Southeast 499 574 31,000  Level Denver Center
09:56AM 41.8969 -106.8917 155° Southeast 494 568 31,000  Level Denver Center
09:57AM 41.7811 -106.8183 155° Southeast 485 558 31,000  Level Denver Center
09:58AM 41.6439 -106.7325 155° Southeast 485 558 31,000  Level Denver Center
09:59AM 41.5286 -106.6597 155° Southeast 481 554 31,000  Level Denver Center
10:00AM 41.4133 -106.5878 155° Southeast 478 550 31,000  Level Denver Center
10:01AM 41.2781 -106.5033 155° Southeast 479 551 31,000  Level Denver Center
10:02AM 41.1625 -106.4317 155° Southeast 478 550 31,000  Level Denver Center
10:03AM 41.0272 -106.3483 155° Southeast 480 552 31,000  Level Denver Center
10:04AM 40.9119 -106.2778 155° Southeast 477 549 31,000  Level Denver Center
10:05AM 40.8167 -106.1472 134° Southeast 468 539 31,000 -1,080 Level Denver Center
10:06AM 40.7256 -106.0028 130° Southeast 477 549 28,900 -2,040 Descending Denver Center
10:07AM 40.6392 -105.8703 131° Southeast 474 545 26,900 -2,100 Descending Denver Center
10:08AM 40.5522 -105.7403 131° Southeast 470 541 24,700 -1,860 Descending Denver Center
10:10AM 40.3911 -105.4878 130° Southeast 438 504 21,200 -2,160 Descending Denver Center
10:11AM 40.3475 -105.3694 116° Southeast 361 415 18,100 -2,400 Descending Denver Center
10:12AM 40.3292 -105.2375 100° East 343 395 16,300 -1,620 Descending Denver Center
10:13AM 40.3142 -105.1222 100° East 327 376 14,800 -1,620 Descending Denver Center
10:14AM 40.2983 -105.0147 101° East 303 349 13,100 -1,500 Descending Denver Center
10:15AM 40.2497 -104.9153 123° Southeast 311 358 11,800 -1,380 Descending Denver Center
10:16AM 40.1922 -104.8367 134° Southeast 300 345 10,300 -1,620 Descending Denver Center
10:17AM 40.1197 -104.7894 154° Southeast 292 336 8,600 -1,440 Descending Denver Center
10:18AM 40.0497 -104.7417 152° Southeast 286 329 7,400 -1,200 Descending Denver Center